Bergamo / Orio Al Serio Airport LIME

Flugplatz Daten

Name: Bergamo / Orio Al Serio Airport

Ident: LIME

Lat: 45,6739006

Long: 9,704170227

Platzhöhe: 782 ft

IataCode: BGY

City: Bergamo

Homepage: http://www.sacbo.it/

Metar

2022/08/13 16:50
LIME 131650Z 17005KT 140V220 CAVOK 27/10 Q1013 NOSIG

Taf

2022/08/13 12:00
TAF LIMC 131100Z 1312/1418 VRB06KT CAVOK
BECMG 1410/1412 20010KT= TAF LIME 131100Z 1312/1412 21010KT CAVOK
BECMG 1316/1318 VRB05KT
Gewünschte Webcam nicht vorhanden? Dann fügen Sie eine hinzu. Sie wird dann so schnell wie möglich freigeschaltet
Url: Title: